Time,TemperatureF,DewpointF,PressureIn,WindDirection,WindDirectionDegrees,WindSpeedMPH,WindSpeedGustMPH,Humidity,HourlyPrecipIn,Conditions,Clouds,dailyrainin,SoftwareType,DateUTC
2013-06-16 00:06:00,68.8,64.0,29.97,SSW,196,0.0,0.0,84,0.00,,,0.00,weatherlink.com 1.10,2013-06-16 04:06:00,
2013-06-16 00:21:00,68.4,64.0,29.96,SSW,196,0.0,0.0,85,0.00,,,0.00,weatherlink.com 1.10,2013-06-16 04:21:00,
2013-06-16 00:36:00,68.3,64.0,29.96,SSW,196,0.0,0.0,85,0.00,,,0.00,weatherlink.com 1.10,2013-06-16 04:36:00,
2013-06-16 00:51:00,68.2,64.0,29.97,SSW,196,0.0,0.0,86,0.00,,,0.00,weatherlink.com 1.10,2013-06-16 04:51:00,
2013-06-16 01:06:00,68.1,64.0,29.97,SSW,196,0.0,0.0,87,0.00,,,0.00,weatherlink.com 1.10,2013-06-16 05:06:00,
2013-06-16 01:21:00,68.2,65.0,29.98,SSW,196,0.0,0.0,88,0.00,,,0.00,weatherlink.com 1.10,2013-06-16 05:21:00,
2013-06-16 01:36:00,68.8,65.0,29.98,SSW,211,0.0,3.0,86,0.00,,,0.00,weatherlink.com 1.10,2013-06-16 05:36:00,
2013-06-16 01:51:00,70.4,64.0,29.97,SW,227,1.0,3.0,81,0.00,,,0.00,weatherlink.com 1.10,2013-06-16 05:51:00,
2013-06-16 02:06:00,71.4,65.0,29.97,WSW,238,0.0,3.0,80,0.00,,,0.00,weatherlink.com 1.10,2013-06-16 06:06:00,
2013-06-16 02:21:00,71.6,64.0,29.97,WSW,240,2.0,3.0,78,0.00,,,0.00,weatherlink.com 1.10,2013-06-16 06:21:00,
2013-06-16 02:37:00,73.2,64.0,29.97,West,267,4.0,9.0,74,0.00,,,0.00,weatherlink.com 1.10,2013-06-16 06:37:00,
2013-06-16 02:52:00,73.7,64.0,29.96,WSW,241,2.0,7.0,72,0.00,,,0.00,weatherlink.com 1.10,2013-06-16 06:52:00,
2013-06-16 03:07:00,73.6,64.0,29.97,WSW,254,2.0,7.0,72,0.00,,,0.00,weatherlink.com 1.10,2013-06-16 07:07:00,
2013-06-16 03:22:00,73.3,64.0,29.96,WSW,258,0.0,6.0,73,0.00,,,0.00,weatherlink.com 1.10,2013-06-16 07:22:00,
2013-06-16 03:37:00,72.8,64.0,29.95,WSW,258,0.0,1.0,74,0.00,,,0.00,weatherlink.com 1.10,2013-06-16 07:37:00,
2013-06-16 03:52:00,72.2,64.0,29.95,WSW,258,0.0,0.0,76,0.00,,,0.00,weatherlink.com 1.10,2013-06-16 07:52:00,
2013-06-16 04:07:00,71.5,64.0,29.94,WSW,258,0.0,0.0,78,0.00,,,0.00,weatherlink.com 1.10,2013-06-16 08:07:00,
2013-06-16 04:22:00,70.9,64.0,29.95,WSW,258,0.0,0.0,80,0.00,,,0.00,weatherlink.com 1.10,2013-06-16 08:22:00,
2013-06-16 04:37:00,70.2,64.0,29.95,WSW,258,0.0,0.0,81,0.00,,,0.00,weatherlink.com 1.10,2013-06-16 08:37:00,
2013-06-16 04:52:00,69.6,64.0,29.95,WSW,258,0.0,0.0,83,0.00,,,0.00,weatherlink.com 1.10,2013-06-16 08:52:00,
2013-06-16 05:07:00,69.0,64.0,29.95,West,273,0.0,3.0,85,0.00,,,0.00,weatherlink.com 1.10,2013-06-16 09:07:00,
2013-06-16 05:22:00,68.7,64.0,29.95,West,273,0.0,0.0,86,0.00,,,0.00,weatherlink.com 1.10,2013-06-16 09:22:00,
2013-06-16 05:37:00,68.4,64.0,29.96,West,273,0.0,0.0,87,0.00,,,0.00,weatherlink.com 1.10,2013-06-16 09:37:00,
2013-06-16 05:52:00,68.2,65.0,29.96,West,273,0.0,0.0,88,0.00,,,0.00,weatherlink.com 1.10,2013-06-16 09:52:00,
2013-06-16 06:07:00,68.1,65.0,29.96,West,273,0.0,0.0,88,0.00,,,0.00,weatherlink.com 1.10,2013-06-16 10:07:00,
2013-06-16 06:22:00,68.0,65.0,29.95,West,273,0.0,0.0,89,0.00,,,0.00,weatherlink.com 1.10,2013-06-16 10:22:00,
2013-06-16 06:37:00,67.8,65.0,29.95,West,273,0.0,0.0,89,0.00,,,0.00,weatherlink.com 1.10,2013-06-16 10:37:00,
2013-06-16 06:52:00,67.8,65.0,29.97,West,273,0.0,0.0,90,0.00,,,0.00,weatherlink.com 1.10,2013-06-16 10:52:00,
2013-06-16 07:07:00,67.9,65.0,29.97,West,273,0.0,0.0,90,0.00,,,0.00,weatherlink.com 1.10,2013-06-16 11:07:00,
2013-06-16 07:22:00,68.3,65.0,29.97,West,273,0.0,1.0,90,0.00,,,0.00,weatherlink.com 1.10,2013-06-16 11:22:00,
2013-06-16 07:37:00,68.7,66.0,29.97,SSW,209,1.0,3.0,90,0.00,,,0.00,weatherlink.com 1.10,2013-06-16 11:37:00,
2013-06-16 07:52:00,69.1,66.0,29.98,SSW,209,0.0,1.0,90,0.00,,,0.00,weatherlink.com 1.10,2013-06-16 11:52:00,
2013-06-16 08:07:00,69.4,66.0,29.98,SSW,209,2.0,2.0,88,0.00,,,0.00,weatherlink.com 1.10,2013-06-16 12:07:00,
2013-06-16 08:22:00,69.8,66.0,29.97,SSW,209,2.0,3.0,88,0.00,,,0.00,weatherlink.com 1.10,2013-06-16 12:22:00,
2013-06-16 08:37:00,70.2,67.0,29.99,South,188,0.0,3.0,88,0.00,,,0.00,weatherlink.com 1.10,2013-06-16 12:37:00,
2013-06-16 08:52:00,70.6,67.0,30.00,SW,222,0.0,2.0,87,0.00,,,0.00,weatherlink.com 1.10,2013-06-16 12:52:00,
2013-06-16 09:07:00,70.9,67.0,30.00,SW,222,0.0,3.0,86,0.00,,,0.00,weatherlink.com 1.10,2013-06-16 13:07:00,
2013-06-16 09:22:00,71.4,67.0,30.00,SW,231,0.0,2.0,85,0.00,,,0.00,weatherlink.com 1.10,2013-06-16 13:22:00,
2013-06-16 09:37:00,72.2,68.0,29.99,SW,225,1.0,2.0,85,0.00,,,0.00,weatherlink.com 1.10,2013-06-16 13:37:00,
2013-06-16 09:52:00,72.8,67.0,30.00,South,179,1.0,4.0,83,0.00,,,0.00,weatherlink.com 1.10,2013-06-16 13:52:00,
2013-06-16 10:07:00,73.7,68.0,29.99,South,184,0.0,3.0,83,0.00,,,0.00,weatherlink.com 1.10,2013-06-16 14:07:00,
2013-06-16 10:22:00,74.2,68.0,29.99,SSW,195,0.0,3.0,81,0.00,,,0.00,weatherlink.com 1.10,2013-06-16 14:22:00,
2013-06-16 10:37:00,74.6,68.0,29.99,South,191,3.0,4.0,79,0.00,,,0.00,weatherlink.com 1.10,2013-06-16 14:37:00,
2013-06-16 10:52:00,74.2,67.0,29.99,SSW,195,1.0,5.0,78,0.00,,,0.00,weatherlink.com 1.10,2013-06-16 14:52:00,
2013-06-16 11:07:00,73.7,68.0,29.98,SSW,195,0.0,0.0,83,0.01,,,0.01,weatherlink.com 1.10,2013-06-16 15:07:00,
2013-06-16 11:22:00,73.1,69.0,29.98,NW,319,2.0,3.0,88,0.01,,,0.01,weatherlink.com 1.10,2013-06-16 15:22:00,
2013-06-16 11:37:00,72.5,69.0,29.98,NW,304,0.0,3.0,89,0.01,,,0.01,weatherlink.com 1.10,2013-06-16 15:37:00,
2013-06-16 11:52:00,73.0,70.0,29.98,NNE,24,3.0,4.0,89,0.01,,,0.01,weatherlink.com 1.10,2013-06-16 15:52:00,
2013-06-16 12:07:00,73.6,69.0,29.97,NNE,32,0.0,2.0,85,0.00,,,0.01,weatherlink.com 1.10,2013-06-16 16:07:00,
2013-06-16 12:22:00,74.3,67.0,29.98,NNE,32,0.0,2.0,79,0.00,,,0.01,weatherlink.com 1.10,2013-06-16 16:22:00,
2013-06-16 12:37:00,75.3,68.0,29.98,NNE,28,0.0,3.0,79,0.00,,,0.01,weatherlink.com 1.10,2013-06-16 16:37:00,
2013-06-16 12:52:00,76.4,69.0,29.97,North,9,3.0,3.0,79,0.00,,,0.01,weatherlink.com 1.10,2013-06-16 16:52:00,
2013-06-16 13:07:00,76.9,70.0,29.97,NE,39,1.0,7.0,80,0.00,,,0.01,weatherlink.com 1.10,2013-06-16 17:07:00,
2013-06-16 13:22:00,77.0,70.0,29.97,NNW,336,1.0,5.0,79,0.00,,,0.01,weatherlink.com 1.10,2013-06-16 17:22:00,
2013-06-16 13:37:00,77.1,70.0,29.98,NNW,348,0.0,5.0,79,0.00,,,0.01,weatherlink.com 1.10,2013-06-16 17:37:00,
2013-06-16 13:52:00,77.4,69.0,29.97,NNE,24,1.0,5.0,76,0.00,,,0.01,weatherlink.com 1.10,2013-06-16 17:52:00,
2013-06-16 14:07:00,77.5,70.0,29.97,NNE,30,1.0,5.0,78,0.00,,,0.01,weatherlink.com 1.10,2013-06-16 18:07:00,
2013-06-16 14:22:00,78.5,70.0,29.97,NNE,28,3.0,6.0,76,0.00,,,0.01,weatherlink.com 1.10,2013-06-16 18:22:00,
2013-06-16 14:37:00,78.4,69.0,29.97,NE,34,3.0,4.0,72,0.00,,,0.01,weatherlink.com 1.10,2013-06-16 18:37:00,
2013-06-16 14:52:00,77.5,69.0,29.97,NNE,22,1.0,3.0,76,0.00,,,0.01,weatherlink.com 1.10,2013-06-16 18:52:00,
2013-06-16 15:07:00,76.4,69.0,29.96,NNE,18,1.0,4.0,79,0.00,,,0.01,weatherlink.com 1.10,2013-06-16 19:07:00,
2013-06-16 15:22:00,76.6,69.0,29.96,North,5,2.0,6.0,76,0.00,,,0.01,weatherlink.com 1.10,2013-06-16 19:22:00,
2013-06-16 15:37:00,76.6,69.0,29.97,NW,323,2.0,5.0,77,0.00,,,0.01,weatherlink.com 1.10,2013-06-16 19:37:00,
2013-06-16 15:52:00,75.1,68.0,29.97,North,360,3.0,6.0,79,0.00,,,0.01,weatherlink.com 1.10,2013-06-16 19:52:00,
2013-06-16 16:07:00,73.4,69.0,29.97,NNW,347,2.0,6.0,85,0.02,,,0.03,weatherlink.com 1.10,2013-06-16 20:07:00,
2013-06-16 16:22:00,72.0,69.0,29.96,WSW,244,3.0,4.0,89,0.04,,,0.05,weatherlink.com 1.10,2013-06-16 20:22:00,
2013-06-16 16:37:00,70.8,68.0,29.93,South,181,1.0,4.0,92,0.06,,,0.07,weatherlink.com 1.10,2013-06-16 20:37:00,
2013-06-16 16:53:00,71.0,69.0,29.90,South,191,3.0,6.0,93,0.07,,,0.08,weatherlink.com 1.10,2013-06-16 20:53:00,
2013-06-16 17:08:00,72.8,70.0,29.90,South,180,5.0,6.0,90,0.05,,,0.08,weatherlink.com 1.10,2013-06-16 21:08:00,
2013-06-16 17:23:00,74.5,70.0,29.91,SW,223,0.0,5.0,85,0.03,,,0.08,weatherlink.com 1.10,2013-06-16 21:23:00,
2013-06-16 17:38:00,76.1,71.0,29.93,SW,223,0.0,1.0,84,0.00,,,0.08,weatherlink.com 1.10,2013-06-16 21:38:00,
2013-06-16 17:53:00,77.5,71.0,29.94,NNW,336,0.0,3.0,80,0.00,,,0.08,weatherlink.com 1.10,2013-06-16 21:53:00,
2013-06-16 18:08:00,76.5,70.0,29.94,SSE,167,0.0,3.0,81,0.00,,,0.08,weatherlink.com 1.10,2013-06-16 22:08:00,
2013-06-16 18:23:00,76.5,71.0,29.94,SSE,159,0.0,3.0,82,0.00,,,0.08,weatherlink.com 1.10,2013-06-16 22:23:00,
2013-06-16 18:38:00,76.3,70.0,29.93,SSW,192,0.0,6.0,82,0.00,,,0.08,weatherlink.com 1.10,2013-06-16 22:38:00,
2013-06-16 18:53:00,75.8,70.0,29.93,South,190,1.0,3.0,81,0.00,,,0.08,weatherlink.com 1.10,2013-06-16 22:53:00,
2013-06-16 19:08:00,76.1,70.0,29.93,South,188,0.0,4.0,82,0.00,,,0.08,weatherlink.com 1.10,2013-06-16 23:08:00,
2013-06-16 19:23:00,76.2,70.0,29.93,SSW,199,3.0,3.0,81,0.00,,,0.08,weatherlink.com 1.10,2013-06-16 23:23:00,
2013-06-16 19:38:00,75.1,70.0,29.93,SSW,199,0.0,2.0,83,0.00,,,0.08,weatherlink.com 1.10,2013-06-16 23:38:00,
2013-06-16 19:53:00,74.6,70.0,29.93,SSW,206,0.0,4.0,84,0.00,,,0.08,weatherlink.com 1.10,2013-06-16 23:53:00,
2013-06-16 20:08:00,74.1,69.0,29.92,SSW,207,1.0,3.0,84,0.00,,,0.08,weatherlink.com 1.10,2013-06-17 00:08:00,
2013-06-16 20:23:00,73.7,69.0,29.92,SSW,207,0.0,0.0,84,0.00,,,0.08,weatherlink.com 1.10,2013-06-17 00:23:00,
2013-06-16 20:38:00,73.4,69.0,29.92,SSW,207,0.0,1.0,87,0.00,,,0.08,weatherlink.com 1.10,2013-06-17 00:38:00,
2013-06-16 20:53:00,72.6,69.0,29.93,SSW,207,0.0,1.0,89,0.00,,,0.08,weatherlink.com 1.10,2013-06-17 00:53:00,
2013-06-16 21:08:00,71.8,69.0,29.93,SSW,207,0.0,0.0,90,0.00,,,0.08,weatherlink.com 1.10,2013-06-17 01:08:00,
2013-06-16 21:23:00,71.1,68.0,29.92,SSW,207,0.0,1.0,90,0.00,,,0.08,weatherlink.com 1.10,2013-06-17 01:23:00,
2013-06-16 21:38:00,70.3,68.0,29.93,SSW,207,0.0,0.0,91,0.00,,,0.08,weatherlink.com 1.10,2013-06-17 01:38:00,
2013-06-16 21:53:00,69.6,67.0,29.94,SSW,207,0.0,0.0,91,0.00,,,0.08,weatherlink.com 1.10,2013-06-17 01:53:00,
2013-06-16 22:08:00,69.0,67.0,29.94,SSW,207,0.0,0.0,92,0.00,,,0.08,weatherlink.com 1.10,2013-06-17 02:08:00,
2013-06-16 22:23:00,68.4,66.0,29.94,SSW,207,0.0,0.0,93,0.00,,,0.08,weatherlink.com 1.10,2013-06-17 02:23:00,
2013-06-16 22:38:00,68.1,66.0,29.94,SSW,207,0.0,0.0,93,0.00,,,0.08,weatherlink.com 1.10,2013-06-17 02:38:00,
2013-06-16 22:53:00,67.6,66.0,29.95,SSW,207,0.0,0.0,94,0.00,,,0.08,weatherlink.com 1.10,2013-06-17 02:53:00,
2013-06-16 23:08:00,67.4,66.0,29.95,SSW,207,0.0,0.0,94,0.00,,,0.08,weatherlink.com 1.10,2013-06-17 03:08:00,
2013-06-16 23:23:00,67.2,66.0,29.95,SSW,207,0.0,0.0,94,0.00,,,0.08,weatherlink.com 1.10,2013-06-17 03:23:00,
2013-06-16 23:38:00,67.0,66.0,29.94,SSW,207,0.0,0.0,95,0.00,,,0.08,weatherlink.com 1.10,2013-06-17 03:38:00,
2013-06-16 23:53:00,67.2,66.0,29.94,SSW,207,0.0,0.0,96,0.00,,,0.08,weatherlink.com 1.10,2013-06-17 03:53:00,